sensor_id;sensor_type;location;lat;lon;timestamp;P1;durP1;ratioP1;P2;durP2;ratioP2
45540;SDS011;31265;49.680;8.608;2022-08-19T00:00:02;10.88;;;5.63;;
45540;SDS011;31265;49.680;8.608;2022-08-19T00:05:00;7.07;;;3.97;;
45540;SDS011;31265;49.680;8.608;2022-08-19T00:07:29;9.55;;;4.82;;
45540;SDS011;31265;49.680;8.608;2022-08-19T00:09:57;9.55;;;4.80;;
45540;SDS011;31265;49.680;8.608;2022-08-19T00:12:25;10.05;;;5.50;;
45540;SDS011;31265;49.680;8.608;2022-08-19T00:14:53;7.97;;;4.88;;
45540;SDS011;31265;49.680;8.608;2022-08-19T00:17:21;8.65;;;4.75;;
45540;SDS011;31265;49.680;8.608;2022-08-19T00:19:51;8.13;;;4.18;;
45540;SDS011;31265;49.680;8.608;2022-08-19T00:22:19;8.90;;;5.05;;
45540;SDS011;31265;49.680;8.608;2022-08-19T00:24:47;7.78;;;4.13;;
45540;SDS011;31265;49.680;8.608;2022-08-19T00:27:16;9.20;;;4.47;;
45540;SDS011;31265;49.680;8.608;2022-08-19T00:29:52;9.15;;;4.60;;
45540;SDS011;31265;49.680;8.608;2022-08-19T00:32:21;11.20;;;5.55;;
45540;SDS011;31265;49.680;8.608;2022-08-19T00:34:51;10.60;;;5.80;;
45540;SDS011;31265;49.680;8.608;2022-08-19T00:37:20;10.75;;;5.28;;
45540;SDS011;31265;49.680;8.608;2022-08-19T00:39:49;8.63;;;4.78;;
45540;SDS011;31265;49.680;8.608;2022-08-19T00:42:19;8.98;;;4.97;;
45540;SDS011;31265;49.680;8.608;2022-08-19T00:44:48;8.77;;;5.10;;
45540;SDS011;31265;49.680;8.608;2022-08-19T00:47:17;10.57;;;5.30;;
45540;SDS011;31265;49.680;8.608;2022-08-19T00:49:47;10.98;;;6.18;;
45540;SDS011;31265;49.680;8.608;2022-08-19T00:52:20;8.95;;;4.97;;
45540;SDS011;31265;49.680;8.608;2022-08-19T00:54:51;11.80;;;6.22;;
45540;SDS011;31265;49.680;8.608;2022-08-19T00:57:22;9.93;;;5.00;;
45540;SDS011;31265;49.680;8.608;2022-08-19T00:59:56;8.35;;;5.05;;
45540;SDS011;31265;49.680;8.608;2022-08-19T01:02:29;10.48;;;5.75;;
45540;SDS011;31265;49.680;8.608;2022-08-19T01:04:59;11.02;;;5.88;;
45540;SDS011;31265;49.680;8.608;2022-08-19T01:07:30;8.20;;;5.00;;
45540;SDS011;31265;49.680;8.608;2022-08-19T01:10:04;11.35;;;5.75;;
45540;SDS011;31265;49.680;8.608;2022-08-19T01:12:35;10.82;;;6.28;;
45540;SDS011;31265;49.680;8.608;2022-08-19T01:15:04;8.90;;;5.23;;
45540;SDS011;31265;49.680;8.608;2022-08-19T01:17:34;12.68;;;6.13;;
45540;SDS011;31265;49.680;8.608;2022-08-19T01:20:04;9.73;;;5.03;;
45540;SDS011;31265;49.680;8.608;2022-08-19T01:22:35;10.52;;;5.43;;
45540;SDS011;31265;49.680;8.608;2022-08-19T01:25:09;10.00;;;5.53;;
45540;SDS011;31265;49.680;8.608;2022-08-19T01:27:41;6.50;;;4.20;;
45540;SDS011;31265;49.680;8.608;2022-08-19T01:30:12;9.40;;;5.75;;
45540;SDS011;31265;49.680;8.608;2022-08-19T01:32:42;11.25;;;6.28;;
45540;SDS011;31265;49.680;8.608;2022-08-19T01:35:11;10.50;;;5.72;;
45540;SDS011;31265;49.680;8.608;2022-08-19T01:37:49;8.90;;;4.97;;
45540;SDS011;31265;49.680;8.608;2022-08-19T01:40:20;8.82;;;4.60;;
45540;SDS011;31265;49.680;8.608;2022-08-19T01:42:53;7.97;;;4.65;;
45540;SDS011;31265;49.680;8.608;2022-08-19T01:45:23;10.77;;;5.18;;
45540;SDS011;31265;49.680;8.608;2022-08-19T01:47:53;8.15;;;5.03;;
45540;SDS011;31265;49.680;8.608;2022-08-19T01:50:28;8.85;;;4.35;;
45540;SDS011;31265;49.680;8.608;2022-08-19T01:52:58;8.15;;;4.53;;
45540;SDS011;31265;49.680;8.608;2022-08-19T01:55:32;9.77;;;4.53;;
45540;SDS011;31265;49.680;8.608;2022-08-19T01:58:08;8.85;;;5.38;;
45540;SDS011;31265;49.680;8.608;2022-08-19T02:00:41;9.68;;;5.20;;
45540;SDS011;31265;49.680;8.608;2022-08-19T02:03:09;11.75;;;5.28;;
45540;SDS011;31265;49.680;8.608;2022-08-19T02:05:38;13.32;;;5.93;;
45540;SDS011;31265;49.680;8.608;2022-08-19T02:08:09;8.25;;;4.65;;
45540;SDS011;31265;49.680;8.608;2022-08-19T02:10:39;8.55;;;4.47;;
45540;SDS011;31265;49.680;8.608;2022-08-19T02:13:08;9.57;;;5.05;;
45540;SDS011;31265;49.680;8.608;2022-08-19T02:15:37;9.83;;;5.20;;
45540;SDS011;31265;49.680;8.608;2022-08-19T02:18:05;10.25;;;4.72;;
45540;SDS011;31265;49.680;8.608;2022-08-19T02:20:34;11.43;;;5.63;;
45540;SDS011;31265;49.680;8.608;2022-08-19T02:23:03;7.30;;;5.20;;
45540;SDS011;31265;49.680;8.608;2022-08-19T02:25:41;7.00;;;4.18;;
45540;SDS011;31265;49.680;8.608;2022-08-19T02:28:10;8.80;;;5.18;;
45540;SDS011;31265;49.680;8.608;2022-08-19T02:30:44;9.02;;;5.15;;
45540;SDS011;31265;49.680;8.608;2022-08-19T02:35:42;10.25;;;5.65;;
45540;SDS011;31265;49.680;8.608;2022-08-19T02:38:10;11.38;;;5.55;;
45540;SDS011;31265;49.680;8.608;2022-08-19T02:40:54;11.05;;;6.05;;
45540;SDS011;31265;49.680;8.608;2022-08-19T02:43:25;9.73;;;5.35;;
45540;SDS011;31265;49.680;8.608;2022-08-19T02:45:54;10.60;;;5.97;;
45540;SDS011;31265;49.680;8.608;2022-08-19T02:48:23;9.73;;;5.43;;
45540;SDS011;31265;49.680;8.608;2022-08-19T02:50:52;8.45;;;5.50;;
45540;SDS011;31265;49.680;8.608;2022-08-19T02:53:22;8.88;;;4.63;;
45540;SDS011;31265;49.680;8.608;2022-08-19T02:55:52;7.80;;;4.70;;
45540;SDS011;31265;49.680;8.608;2022-08-19T02:58:22;6.30;;;4.10;;
45540;SDS011;31265;49.680;8.608;2022-08-19T03:00:52;8.82;;;5.07;;
45540;SDS011;31265;49.680;8.608;2022-08-19T03:03:22;8.18;;;4.20;;
45540;SDS011;31265;49.680;8.608;2022-08-19T03:05:50;7.63;;;4.45;;
45540;SDS011;31265;49.680;8.608;2022-08-19T03:08:23;9.85;;;5.80;;
45540;SDS011;31265;49.680;8.608;2022-08-19T03:10:52;8.88;;;5.00;;
45540;SDS011;31265;49.680;8.608;2022-08-19T03:13:21;9.70;;;5.07;;
45540;SDS011;31265;49.680;8.608;2022-08-19T03:15:50;9.57;;;5.13;;
45540;SDS011;31265;49.680;8.608;2022-08-19T03:18:18;9.38;;;5.05;;
45540;SDS011;31265;49.680;8.608;2022-08-19T03:20:50;9.35;;;5.57;;
45540;SDS011;31265;49.680;8.608;2022-08-19T03:23:21;12.95;;;6.07;;
45540;SDS011;31265;49.680;8.608;2022-08-19T03:25:50;13.85;;;6.28;;
45540;SDS011;31265;49.680;8.608;2022-08-19T03:28:41;9.48;;;5.30;;
45540;SDS011;31265;49.680;8.608;2022-08-19T03:31:23;10.82;;;5.45;;
45540;SDS011;31265;49.680;8.608;2022-08-19T03:34:15;11.23;;;6.07;;
45540;SDS011;31265;49.680;8.608;2022-08-19T03:36:45;10.93;;;6.05;;
45540;SDS011;31265;49.680;8.608;2022-08-19T03:39:14;9.55;;;5.25;;
45540;SDS011;31265;49.680;8.608;2022-08-19T03:41:44;7.68;;;4.90;;
45540;SDS011;31265;49.680;8.608;2022-08-19T03:44:16;11.40;;;5.78;;
45540;SDS011;31265;49.680;8.608;2022-08-19T03:46:47;9.40;;;6.18;;
45540;SDS011;31265;49.680;8.608;2022-08-19T03:49:17;10.98;;;5.43;;
45540;SDS011;31265;49.680;8.608;2022-08-19T03:51:53;9.55;;;5.45;;
45540;SDS011;31265;49.680;8.608;2022-08-19T03:54:24;10.65;;;5.55;;
45540;SDS011;31265;49.680;8.608;2022-08-19T03:56:54;9.10;;;5.03;;
45540;SDS011;31265;49.680;8.608;2022-08-19T03:59:25;11.52;;;6.57;;
45540;SDS011;31265;49.680;8.608;2022-08-19T04:01:55;10.32;;;5.20;;
45540;SDS011;31265;49.680;8.608;2022-08-19T04:04:26;12.05;;;6.05;;
45540;SDS011;31265;49.680;8.608;2022-08-19T04:06:55;8.40;;;5.00;;
45540;SDS011;31265;49.680;8.608;2022-08-19T04:09:24;11.50;;;5.47;;
45540;SDS011;31265;49.680;8.608;2022-08-19T04:11:52;9.98;;;5.82;;
45540;SDS011;31265;49.680;8.608;2022-08-19T04:14:24;10.35;;;5.50;;
45540;SDS011;31265;49.680;8.608;2022-08-19T04:16:56;9.15;;;5.10;;
45540;SDS011;31265;49.680;8.608;2022-08-19T04:19:25;9.93;;;5.25;;
45540;SDS011;31265;49.680;8.608;2022-08-19T04:21:54;9.10;;;5.43;;
45540;SDS011;31265;49.680;8.608;2022-08-19T04:24:22;7.93;;;4.40;;
45540;SDS011;31265;49.680;8.608;2022-08-19T04:26:50;7.85;;;4.90;;
45540;SDS011;31265;49.680;8.608;2022-08-19T04:29:19;10.95;;;5.85;;
45540;SDS011;31265;49.680;8.608;2022-08-19T04:31:53;10.30;;;5.57;;
45540;SDS011;31265;49.680;8.608;2022-08-19T04:34:23;10.18;;;5.13;;
45540;SDS011;31265;49.680;8.608;2022-08-19T04:36:53;10.93;;;5.28;;
45540;SDS011;31265;49.680;8.608;2022-08-19T04:39:24;12.80;;;5.80;;
45540;SDS011;31265;49.680;8.608;2022-08-19T04:42:15;10.57;;;5.63;;
45540;SDS011;31265;49.680;8.608;2022-08-19T04:45:02;9.45;;;4.78;;
45540;SDS011;31265;49.680;8.608;2022-08-19T04:47:36;10.25;;;5.72;;
45540;SDS011;31265;49.680;8.608;2022-08-19T04:50:23;9.02;;;4.68;;
45540;SDS011;31265;49.680;8.608;2022-08-19T04:52:52;10.35;;;5.60;;
45540;SDS011;31265;49.680;8.608;2022-08-19T04:55:21;9.48;;;5.93;;
45540;SDS011;31265;49.680;8.608;2022-08-19T04:57:51;10.02;;;5.10;;
45540;SDS011;31265;49.680;8.608;2022-08-19T05:00:20;11.73;;;5.95;;
45540;SDS011;31265;49.680;8.608;2022-08-19T05:02:49;10.60;;;5.00;;
45540;SDS011;31265;49.680;8.608;2022-08-19T05:05:17;8.65;;;5.03;;
45540;SDS011;31265;49.680;8.608;2022-08-19T05:07:46;9.32;;;5.35;;
45540;SDS011;31265;49.680;8.608;2022-08-19T05:10:14;9.65;;;5.35;;
45540;SDS011;31265;49.680;8.608;2022-08-19T05:12:42;10.35;;;4.88;;
45540;SDS011;31265;49.680;8.608;2022-08-19T05:15:10;10.00;;;5.53;;
45540;SDS011;31265;49.680;8.608;2022-08-19T05:17:38;9.15;;;5.15;;
45540;SDS011;31265;49.680;8.608;2022-08-19T05:20:28;11.57;;;5.60;;
45540;SDS011;31265;49.680;8.608;2022-08-19T05:23:14;13.50;;;6.63;;
45540;SDS011;31265;49.680;8.608;2022-08-19T05:25:48;11.48;;;5.68;;
45540;SDS011;31265;49.680;8.608;2022-08-19T05:28:18;11.90;;;5.40;;
45540;SDS011;31265;49.680;8.608;2022-08-19T05:30:46;11.80;;;5.87;;
45540;SDS011;31265;49.680;8.608;2022-08-19T05:33:17;9.32;;;5.60;;
45540;SDS011;31265;49.680;8.608;2022-08-19T05:35:47;8.77;;;4.95;;
45540;SDS011;31265;49.680;8.608;2022-08-19T05:38:16;12.02;;;6.47;;
45540;SDS011;31265;49.680;8.608;2022-08-19T05:40:44;8.52;;;4.50;;
45540;SDS011;31265;49.680;8.608;2022-08-19T05:43:14;12.02;;;6.72;;
45540;SDS011;31265;49.680;8.608;2022-08-19T05:45:43;13.50;;;5.73;;
45540;SDS011;31265;49.680;8.608;2022-08-19T05:48:12;8.40;;;5.00;;
45540;SDS011;31265;49.680;8.608;2022-08-19T05:50:41;9.05;;;4.95;;
45540;SDS011;31265;49.680;8.608;2022-08-19T05:53:13;10.48;;;5.80;;
45540;SDS011;31265;49.680;8.608;2022-08-19T05:55:42;10.15;;;5.05;;
45540;SDS011;31265;49.680;8.608;2022-08-19T05:58:10;9.07;;;5.15;;
45540;SDS011;31265;49.680;8.608;2022-08-19T06:00:39;14.57;;;5.88;;
45540;SDS011;31265;49.680;8.608;2022-08-19T06:03:07;12.52;;;5.15;;
45540;SDS011;31265;49.680;8.608;2022-08-19T06:05:39;12.13;;;6.53;;
45540;SDS011;31265;49.680;8.608;2022-08-19T06:08:20;11.48;;;5.90;;
45540;SDS011;31265;49.680;8.608;2022-08-19T06:11:16;9.27;;;5.38;;
45540;SDS011;31265;49.680;8.608;2022-08-19T06:13:47;10.70;;;5.65;;
45540;SDS011;31265;49.680;8.608;2022-08-19T06:16:17;14.10;;;6.15;;
45540;SDS011;31265;49.680;8.608;2022-08-19T06:18:49;9.05;;;5.55;;
45540;SDS011;31265;49.680;8.608;2022-08-19T06:21:19;11.55;;;4.72;;
45540;SDS011;31265;49.680;8.608;2022-08-19T06:23:50;10.65;;;5.82;;
45540;SDS011;31265;49.680;8.608;2022-08-19T06:26:18;10.68;;;5.55;;
45540;SDS011;31265;49.680;8.608;2022-08-19T06:28:47;11.13;;;5.83;;
45540;SDS011;31265;49.680;8.608;2022-08-19T06:31:16;9.70;;;5.07;;
45540;SDS011;31265;49.680;8.608;2022-08-19T06:33:47;12.70;;;5.50;;
45540;SDS011;31265;49.680;8.608;2022-08-19T06:36:17;8.27;;;5.13;;
45540;SDS011;31265;49.680;8.608;2022-08-19T06:38:52;8.93;;;4.72;;
45540;SDS011;31265;49.680;8.608;2022-08-19T06:43:48;8.85;;;4.72;;
45540;SDS011;31265;49.680;8.608;2022-08-19T06:46:19;8.88;;;4.97;;
45540;SDS011;31265;49.680;8.608;2022-08-19T06:48:48;8.67;;;5.27;;
45540;SDS011;31265;49.680;8.608;2022-08-19T06:51:20;10.38;;;5.80;;
45540;SDS011;31265;49.680;8.608;2022-08-19T06:53:52;7.55;;;4.25;;
45540;SDS011;31265;49.680;8.608;2022-08-19T06:56:22;8.25;;;4.82;;
45540;SDS011;31265;49.680;8.608;2022-08-19T06:58:57;9.25;;;4.82;;
45540;SDS011;31265;49.680;8.608;2022-08-19T07:01:25;8.82;;;4.63;;
45540;SDS011;31265;49.680;8.608;2022-08-19T07:03:54;7.18;;;4.18;;
45540;SDS011;31265;49.680;8.608;2022-08-19T07:06:24;9.93;;;5.15;;
45540;SDS011;31265;49.680;8.608;2022-08-19T07:09:12;7.95;;;4.45;;
45540;SDS011;31265;49.680;8.608;2022-08-19T07:11:45;12.00;;;5.30;;
45540;SDS011;31265;49.680;8.608;2022-08-19T07:14:15;8.23;;;4.78;;
45540;SDS011;31265;49.680;8.608;2022-08-19T07:16:46;7.82;;;4.25;;
45540;SDS011;31265;49.680;8.608;2022-08-19T07:19:15;8.18;;;4.25;;
45540;SDS011;31265;49.680;8.608;2022-08-19T07:24:15;11.77;;;4.75;;
45540;SDS011;31265;49.680;8.608;2022-08-19T07:26:45;8.35;;;4.70;;
45540;SDS011;31265;49.680;8.608;2022-08-19T07:29:18;9.18;;;4.90;;
45540;SDS011;31265;49.680;8.608;2022-08-19T07:31:51;6.80;;;4.20;;
45540;SDS011;31265;49.680;8.608;2022-08-19T07:34:23;6.57;;;4.15;;
45540;SDS011;31265;49.680;8.608;2022-08-19T07:36:53;9.32;;;4.43;;
45540;SDS011;31265;49.680;8.608;2022-08-19T07:39:24;9.25;;;4.93;;
45540;SDS011;31265;49.680;8.608;2022-08-19T07:41:54;9.60;;;3.85;;
45540;SDS011;31265;49.680;8.608;2022-08-19T07:44:24;6.70;;;3.90;;
45540;SDS011;31265;49.680;8.608;2022-08-19T07:46:54;7.32;;;3.97;;
45540;SDS011;31265;49.680;8.608;2022-08-19T07:49:23;7.00;;;3.97;;
45540;SDS011;31265;49.680;8.608;2022-08-19T07:51:52;7.97;;;3.90;;
45540;SDS011;31265;49.680;8.608;2022-08-19T07:54:24;5.88;;;3.53;;
45540;SDS011;31265;49.680;8.608;2022-08-19T07:56:53;5.82;;;3.63;;
45540;SDS011;31265;49.680;8.608;2022-08-19T07:59:22;6.97;;;3.50;;
45540;SDS011;31265;49.680;8.608;2022-08-19T08:04:19;4.60;;;3.13;;
45540;SDS011;31265;49.680;8.608;2022-08-19T08:07:05;4.78;;;2.83;;
45540;SDS011;31265;49.680;8.608;2022-08-19T08:09:58;4.97;;;2.63;;
45540;SDS011;31265;49.680;8.608;2022-08-19T08:12:32;8.77;;;3.53;;
45540;SDS011;31265;49.680;8.608;2022-08-19T08:15:03;8.23;;;2.90;;
45540;SDS011;31265;49.680;8.608;2022-08-19T08:17:38;7.65;;;2.83;;
45540;SDS011;31265;49.680;8.608;2022-08-19T08:20:15;5.00;;;2.88;;
45540;SDS011;31265;49.680;8.608;2022-08-19T08:22:44;5.80;;;2.28;;
45540;SDS011;31265;49.680;8.608;2022-08-19T08:25:32;6.03;;;2.55;;
45540;SDS011;31265;49.680;8.608;2022-08-19T08:28:02;4.95;;;2.38;;
45540;SDS011;31265;49.680;8.608;2022-08-19T08:30:31;4.60;;;2.65;;
45540;SDS011;31265;49.680;8.608;2022-08-19T08:33:02;4.45;;;2.42;;
45540;SDS011;31265;49.680;8.608;2022-08-19T08:35:32;4.65;;;2.00;;
45540;SDS011;31265;49.680;8.608;2022-08-19T08:38:00;4.53;;;2.25;;
45540;SDS011;31265;49.680;8.608;2022-08-19T08:40:33;4.22;;;2.53;;
45540;SDS011;31265;49.680;8.608;2022-08-19T08:43:20;4.28;;;2.30;;
45540;SDS011;31265;49.680;8.608;2022-08-19T08:45:59;5.55;;;3.00;;
45540;SDS011;31265;49.680;8.608;2022-08-19T08:48:34;3.97;;;2.50;;
45540;SDS011;31265;49.680;8.608;2022-08-19T08:51:07;6.53;;;2.40;;
45540;SDS011;31265;49.680;8.608;2022-08-19T08:53:38;5.18;;;2.38;;
45540;SDS011;31265;49.680;8.608;2022-08-19T08:56:11;4.10;;;2.42;;
45540;SDS011;31265;49.680;8.608;2022-08-19T08:58:45;8.23;;;2.45;;
45540;SDS011;31265;49.680;8.608;2022-08-19T09:01:20;4.20;;;2.30;;
45540;SDS011;31265;49.680;8.608;2022-08-19T09:03:49;5.00;;;2.57;;
45540;SDS011;31265;49.680;8.608;2022-08-19T09:08:53;4.93;;;2.58;;
45540;SDS011;31265;49.680;8.608;2022-08-19T09:11:33;3.53;;;2.00;;
45540;SDS011;31265;49.680;8.608;2022-08-19T09:14:19;4.93;;;2.13;;
45540;SDS011;31265;49.680;8.608;2022-08-19T09:17:16;5.90;;;2.28;;
45540;SDS011;31265;49.680;8.608;2022-08-19T09:19:49;4.63;;;1.70;;
45540;SDS011;31265;49.680;8.608;2022-08-19T09:22:19;3.08;;;1.77;;
45540;SDS011;31265;49.680;8.608;2022-08-19T09:24:52;3.45;;;2.17;;
45540;SDS011;31265;49.680;8.608;2022-08-19T09:27:23;4.90;;;1.90;;
45540;SDS011;31265;49.680;8.608;2022-08-19T09:30:16;3.17;;;1.58;;
45540;SDS011;31265;49.680;8.608;2022-08-19T09:32:47;3.75;;;1.98;;
45540;SDS011;31265;49.680;8.608;2022-08-19T09:35:19;9.45;;;2.08;;
45540;SDS011;31265;49.680;8.608;2022-08-19T09:37:50;3.72;;;1.83;;
45540;SDS011;31265;49.680;8.608;2022-08-19T09:40:25;3.28;;;1.80;;
45540;SDS011;31265;49.680;8.608;2022-08-19T09:42:58;3.28;;;2.05;;
45540;SDS011;31265;49.680;8.608;2022-08-19T09:45:35;2.90;;;1.50;;
45540;SDS011;31265;49.680;8.608;2022-08-19T09:48:04;4.18;;;1.92;;
45540;SDS011;31265;49.680;8.608;2022-08-19T09:50:32;3.13;;;1.48;;
45540;SDS011;31265;49.680;8.608;2022-08-19T09:53:18;3.75;;;1.48;;
45540;SDS011;31265;49.680;8.608;2022-08-19T09:55:51;2.50;;;1.50;;
45540;SDS011;31265;49.680;8.608;2022-08-19T09:58:21;2.63;;;1.60;;
45540;SDS011;31265;49.680;8.608;2022-08-19T10:00:53;3.22;;;1.90;;
45540;SDS011;31265;49.680;8.608;2022-08-19T10:03:21;3.67;;;2.22;;
45540;SDS011;31265;49.680;8.608;2022-08-19T10:05:56;4.75;;;1.90;;
45540;SDS011;31265;49.680;8.608;2022-08-19T10:08:26;2.50;;;1.60;;
45540;SDS011;31265;49.680;8.608;2022-08-19T10:10:56;3.63;;;1.70;;
45540;SDS011;31265;49.680;8.608;2022-08-19T10:13:47;4.28;;;1.33;;
45540;SDS011;31265;49.680;8.608;2022-08-19T10:16:17;2.90;;;1.48;;
45540;SDS011;31265;49.680;8.608;2022-08-19T10:18:52;2.45;;;1.33;;
45540;SDS011;31265;49.680;8.608;2022-08-19T10:21:25;2.85;;;1.73;;
45540;SDS011;31265;49.680;8.608;2022-08-19T10:23:58;4.80;;;1.70;;
45540;SDS011;31265;49.680;8.608;2022-08-19T10:26:31;5.70;;;1.73;;
45540;SDS011;31265;49.680;8.608;2022-08-19T10:29:04;3.58;;;1.98;;
45540;SDS011;31265;49.680;8.608;2022-08-19T10:31:35;3.05;;;2.08;;
45540;SDS011;31265;49.680;8.608;2022-08-19T10:34:23;3.05;;;1.85;;
45540;SDS011;31265;49.680;8.608;2022-08-19T10:36:54;2.92;;;1.65;;
45540;SDS011;31265;49.680;8.608;2022-08-19T10:39:27;2.78;;;1.45;;
45540;SDS011;31265;49.680;8.608;2022-08-19T10:41:57;3.58;;;1.95;;
45540;SDS011;31265;49.680;8.608;2022-08-19T10:44:26;4.03;;;1.67;;
45540;SDS011;31265;49.680;8.608;2022-08-19T10:46:58;2.72;;;1.70;;
45540;SDS011;31265;49.680;8.608;2022-08-19T10:49:27;2.67;;;1.70;;
45540;SDS011;31265;49.680;8.608;2022-08-19T10:51:55;2.85;;;1.67;;
45540;SDS011;31265;49.680;8.608;2022-08-19T10:54:47;3.03;;;1.90;;
45540;SDS011;31265;49.680;8.608;2022-08-19T10:57:38;4.82;;;1.65;;
45540;SDS011;31265;49.680;8.608;2022-08-19T11:02:57;4.15;;;2.45;;
45540;SDS011;31265;49.680;8.608;2022-08-19T11:05:25;5.35;;;1.98;;
45540;SDS011;31265;49.680;8.608;2022-08-19T11:07:53;3.35;;;2.22;;
45540;SDS011;31265;49.680;8.608;2022-08-19T11:10:22;3.83;;;2.20;;
45540;SDS011;31265;49.680;8.608;2022-08-19T11:12:50;2.78;;;1.95;;
45540;SDS011;31265;49.680;8.608;2022-08-19T11:15:20;4.03;;;2.15;;
45540;SDS011;31265;49.680;8.608;2022-08-19T11:17:50;3.92;;;2.13;;
45540;SDS011;31265;49.680;8.608;2022-08-19T11:20:21;4.72;;;2.10;;
45540;SDS011;31265;49.680;8.608;2022-08-19T11:22:50;2.80;;;1.70;;
45540;SDS011;31265;49.680;8.608;2022-08-19T11:25:19;2.60;;;1.63;;
45540;SDS011;31265;49.680;8.608;2022-08-19T11:27:48;2.88;;;1.42;;
45540;SDS011;31265;49.680;8.608;2022-08-19T11:30:18;4.15;;;2.30;;
45540;SDS011;31265;49.680;8.608;2022-08-19T11:32:47;4.05;;;2.40;;
45540;SDS011;31265;49.680;8.608;2022-08-19T11:35:16;6.13;;;2.30;;
45540;SDS011;31265;49.680;8.608;2022-08-19T11:37:46;3.75;;;2.40;;
45540;SDS011;31265;49.680;8.608;2022-08-19T11:40:14;4.65;;;2.78;;
45540;SDS011;31265;49.680;8.608;2022-08-19T11:42:42;4.97;;;3.37;;
45540;SDS011;31265;49.680;8.608;2022-08-19T11:45:23;4.55;;;3.05;;
45540;SDS011;31265;49.680;8.608;2022-08-19T11:47:52;6.10;;;3.70;;
45540;SDS011;31265;49.680;8.608;2022-08-19T11:50:22;5.07;;;3.28;;
45540;SDS011;31265;49.680;8.608;2022-08-19T11:52:52;5.38;;;3.38;;
45540;SDS011;31265;49.680;8.608;2022-08-19T11:55:21;5.15;;;3.20;;
45540;SDS011;31265;49.680;8.608;2022-08-19T11:57:50;5.80;;;3.10;;
45540;SDS011;31265;49.680;8.608;2022-08-19T12:00:18;6.38;;;3.00;;
45540;SDS011;31265;49.680;8.608;2022-08-19T12:02:48;5.00;;;3.53;;
45540;SDS011;31265;49.680;8.608;2022-08-19T12:05:16;4.80;;;3.22;;
45540;SDS011;31265;49.680;8.608;2022-08-19T12:07:45;5.05;;;3.10;;
45540;SDS011;31265;49.680;8.608;2022-08-19T12:10:13;6.45;;;4.07;;
45540;SDS011;31265;49.680;8.608;2022-08-19T12:12:45;5.53;;;3.05;;
45540;SDS011;31265;49.680;8.608;2022-08-19T12:15:24;3.83;;;2.33;;
45540;SDS011;31265;49.680;8.608;2022-08-19T12:18:02;5.93;;;3.40;;
45540;SDS011;31265;49.680;8.608;2022-08-19T12:20:33;4.95;;;3.42;;
45540;SDS011;31265;49.680;8.608;2022-08-19T12:23:04;7.63;;;3.88;;
45540;SDS011;31265;49.680;8.608;2022-08-19T12:25:32;5.53;;;3.45;;
45540;SDS011;31265;49.680;8.608;2022-08-19T12:28:01;4.60;;;2.70;;
45540;SDS011;31265;49.680;8.608;2022-08-19T12:30:30;5.20;;;3.20;;
45540;SDS011;31265;49.680;8.608;2022-08-19T12:32:58;4.82;;;2.85;;
45540;SDS011;31265;49.680;8.608;2022-08-19T12:35:27;4.78;;;3.03;;
45540;SDS011;31265;49.680;8.608;2022-08-19T12:37:57;3.90;;;2.30;;
45540;SDS011;31265;49.680;8.608;2022-08-19T12:40:27;4.60;;;2.50;;
45540;SDS011;31265;49.680;8.608;2022-08-19T12:42:55;3.90;;;2.33;;
45540;SDS011;31265;49.680;8.608;2022-08-19T12:45:23;4.05;;;2.28;;
45540;SDS011;31265;49.680;8.608;2022-08-19T12:47:52;4.20;;;2.55;;
45540;SDS011;31265;49.680;8.608;2022-08-19T12:50:21;3.63;;;1.77;;
45540;SDS011;31265;49.680;8.608;2022-08-19T12:52:49;4.20;;;2.20;;
45540;SDS011;31265;49.680;8.608;2022-08-19T12:55:17;3.95;;;2.80;;
45540;SDS011;31265;49.680;8.608;2022-08-19T12:57:47;3.83;;;2.20;;
45540;SDS011;31265;49.680;8.608;2022-08-19T13:00:16;3.40;;;2.33;;
45540;SDS011;31265;49.680;8.608;2022-08-19T13:02:48;3.20;;;1.92;;
45540;SDS011;31265;49.680;8.608;2022-08-19T13:05:19;4.07;;;1.58;;
45540;SDS011;31265;49.680;8.608;2022-08-19T13:07:50;3.03;;;1.65;;
45540;SDS011;31265;49.680;8.608;2022-08-19T13:10:24;3.22;;;1.63;;
45540;SDS011;31265;49.680;8.608;2022-08-19T13:12:57;3.15;;;1.70;;
45540;SDS011;31265;49.680;8.608;2022-08-19T13:15:26;2.88;;;1.70;;
45540;SDS011;31265;49.680;8.608;2022-08-19T13:17:55;2.50;;;1.42;;
45540;SDS011;31265;49.680;8.608;2022-08-19T13:20:23;2.60;;;1.30;;
45540;SDS011;31265;49.680;8.608;2022-08-19T13:22:52;2.80;;;1.48;;
45540;SDS011;31265;49.680;8.608;2022-08-19T13:25:21;9.05;;;1.58;;
45540;SDS011;31265;49.680;8.608;2022-08-19T13:27:49;3.33;;;1.60;;
45540;SDS011;31265;49.680;8.608;2022-08-19T13:33:02;2.92;;;1.50;;
45540;SDS011;31265;49.680;8.608;2022-08-19T13:35:43;3.22;;;1.60;;
45540;SDS011;31265;49.680;8.608;2022-08-19T13:38:14;2.50;;;1.60;;
45540;SDS011;31265;49.680;8.608;2022-08-19T13:40:43;2.10;;;1.30;;
45540;SDS011;31265;49.680;8.608;2022-08-19T13:43:13;2.97;;;1.42;;
45540;SDS011;31265;49.680;8.608;2022-08-19T13:45:51;2.78;;;1.52;;
45540;SDS011;31265;49.680;8.608;2022-08-19T13:48:24;1.95;;;1.23;;
45540;SDS011;31265;49.680;8.608;2022-08-19T13:50:53;2.08;;;1.33;;
45540;SDS011;31265;49.680;8.608;2022-08-19T13:53:22;2.28;;;1.30;;
45540;SDS011;31265;49.680;8.608;2022-08-19T13:55:51;2.17;;;1.23;;
45540;SDS011;31265;49.680;8.608;2022-08-19T14:00:48;2.60;;;1.60;;
45540;SDS011;31265;49.680;8.608;2022-08-19T14:03:18;3.03;;;1.60;;
45540;SDS011;31265;49.680;8.608;2022-08-19T14:05:46;2.45;;;1.80;;
45540;SDS011;31265;49.680;8.608;2022-08-19T14:08:14;3.75;;;2.20;;
45540;SDS011;31265;49.680;8.608;2022-08-19T14:10:43;3.35;;;1.98;;
45540;SDS011;31265;49.680;8.608;2022-08-19T14:13:13;4.20;;;1.67;;
45540;SDS011;31265;49.680;8.608;2022-08-19T14:15:44;2.45;;;1.73;;
45540;SDS011;31265;49.680;8.608;2022-08-19T14:18:12;3.05;;;1.92;;
45540;SDS011;31265;49.680;8.608;2022-08-19T14:20:42;2.50;;;1.63;;
45540;SDS011;31265;49.680;8.608;2022-08-19T14:23:10;4.47;;;1.80;;
45540;SDS011;31265;49.680;8.608;2022-08-19T14:25:40;2.97;;;1.70;;
45540;SDS011;31265;49.680;8.608;2022-08-19T14:28:08;2.83;;;2.05;;
45540;SDS011;31265;49.680;8.608;2022-08-19T14:30:37;2.92;;;1.80;;
45540;SDS011;31265;49.680;8.608;2022-08-19T14:33:05;3.03;;;1.65;;
45540;SDS011;31265;49.680;8.608;2022-08-19T14:35:35;3.60;;;1.50;;
45540;SDS011;31265;49.680;8.608;2022-08-19T14:38:06;3.28;;;1.65;;
45540;SDS011;31265;49.680;8.608;2022-08-19T14:43:11;2.45;;;1.58;;
45540;SDS011;31265;49.680;8.608;2022-08-19T14:45:43;5.15;;;1.80;;
45540;SDS011;31265;49.680;8.608;2022-08-19T14:48:12;2.45;;;1.33;;
45540;SDS011;31265;49.680;8.608;2022-08-19T14:50:45;3.28;;;1.80;;
45540;SDS011;31265;49.680;8.608;2022-08-19T14:53:15;2.78;;;1.77;;
45540;SDS011;31265;49.680;8.608;2022-08-19T14:55:44;2.88;;;1.70;;
45540;SDS011;31265;49.680;8.608;2022-08-19T14:58:13;2.60;;;1.58;;
45540;SDS011;31265;49.680;8.608;2022-08-19T15:00:57;3.92;;;1.80;;
45540;SDS011;31265;49.680;8.608;2022-08-19T15:03:26;3.15;;;2.00;;
45540;SDS011;31265;49.680;8.608;2022-08-19T15:05:54;4.88;;;1.80;;
45540;SDS011;31265;49.680;8.608;2022-08-19T15:10:54;4.68;;;1.83;;
45540;SDS011;31265;49.680;8.608;2022-08-19T15:13:22;3.50;;;1.30;;
45540;SDS011;31265;49.680;8.608;2022-08-19T15:15:51;2.75;;;1.60;;
45540;SDS011;31265;49.680;8.608;2022-08-19T15:18:19;4.93;;;1.43;;
45540;SDS011;31265;49.680;8.608;2022-08-19T15:20:48;2.75;;;1.70;;
45540;SDS011;31265;49.680;8.608;2022-08-19T15:25:47;1.95;;;1.42;;
45540;SDS011;31265;49.680;8.608;2022-08-19T15:28:22;2.40;;;1.50;;
45540;SDS011;31265;49.680;8.608;2022-08-19T15:30:51;2.83;;;1.33;;
45540;SDS011;31265;49.680;8.608;2022-08-19T15:35:47;3.38;;;1.85;;
45540;SDS011;31265;49.680;8.608;2022-08-19T15:38:17;3.35;;;1.40;;
45540;SDS011;31265;49.680;8.608;2022-08-19T15:40:49;3.50;;;1.60;;
45540;SDS011;31265;49.680;8.608;2022-08-19T15:43:18;3.40;;;1.65;;